sensor_id;sensor_type;location;lat;lon;timestamp;pressure;altitude;pressure_sealevel;temperature;humidity
48624;BME280;34422;45.802;16.114;2023-05-03T00:00:03;100617.75;;;12.94;100.00
48624;BME280;34422;45.802;16.114;2023-05-03T00:02:36;100623.22;;;12.87;100.00
48624;BME280;34422;45.802;16.114;2023-05-03T00:05:17;100612.97;;;12.89;100.00
48624;BME280;34422;45.802;16.114;2023-05-03T00:07:48;100619.88;;;12.85;100.00
48624;BME280;34422;45.802;16.114;2023-05-03T00:10:24;100590.81;;;12.61;100.00
48624;BME280;34422;45.802;16.114;2023-05-03T00:12:56;100589.13;;;12.60;100.00
48624;BME280;34422;45.802;16.114;2023-05-03T00:15:27;100610.78;;;12.73;100.00
48624;BME280;34422;45.802;16.114;2023-05-03T00:17:58;100585.03;;;12.51;100.00
48624;BME280;34422;45.802;16.114;2023-05-03T00:20:58;100603.31;;;12.68;100.00
48624;BME280;34422;45.802;16.114;2023-05-03T00:23:30;100567.50;;;12.46;100.00
48624;BME280;34422;45.802;16.114;2023-05-03T00:25:57;100602.06;;;12.64;100.00
48624;BME280;34422;45.802;16.114;2023-05-03T00:28:51;100574.25;;;12.37;100.00
48624;BME280;34422;45.802;16.114;2023-05-03T00:31:33;100598.41;;;12.45;100.00
48624;BME280;34422;45.802;16.114;2023-05-03T00:34:05;100574.66;;;12.41;100.00
48624;BME280;34422;45.802;16.114;2023-05-03T00:36:47;100587.53;;;12.45;100.00
48624;BME280;34422;45.802;16.114;2023-05-03T00:39:20;100596.06;;;12.56;100.00
48624;BME280;34422;45.802;16.114;2023-05-03T00:42:04;100573.41;;;12.37;100.00
48624;BME280;34422;45.802;16.114;2023-05-03T00:44:47;100595.81;;;12.64;100.00
48624;BME280;34422;45.802;16.114;2023-05-03T00:47:20;100607.75;;;12.56;100.00
48624;BME280;34422;45.802;16.114;2023-05-03T00:50:04;100567.16;;;12.36;100.00
48624;BME280;34422;45.802;16.114;2023-05-03T00:52:46;100590.03;;;12.47;100.00
48624;BME280;34422;45.802;16.114;2023-05-03T00:55:21;100595.47;;;12.47;100.00
48624;BME280;34422;45.802;16.114;2023-05-03T00:58:03;100566.59;;;12.28;100.00
48624;BME280;34422;45.802;16.114;2023-05-03T01:00:41;100567.22;;;12.23;100.00
48624;BME280;34422;45.802;16.114;2023-05-03T01:03:15;100584.25;;;12.43;100.00
48624;BME280;34422;45.802;16.114;2023-05-03T01:11:44;100556.78;;;12.20;100.00
48624;BME280;34422;45.802;16.114;2023-05-03T01:17:42;100564.06;;;12.26;100.00
48624;BME280;34422;45.802;16.114;2023-05-03T01:20:25;100592.59;;;12.42;100.00
48624;BME280;34422;45.802;16.114;2023-05-03T01:23:17;100580.53;;;12.31;100.00
48624;BME280;34422;45.802;16.114;2023-05-03T01:26:35;100591.63;;;12.30;100.00
48624;BME280;34422;45.802;16.114;2023-05-03T01:29:09;100564.13;;;12.13;100.00
48624;BME280;34422;45.802;16.114;2023-05-03T01:32:05;100590.94;;;12.34;100.00
48624;BME280;34422;45.802;16.114;2023-05-03T01:34:55;100559.09;;;12.17;100.00
48624;BME280;34422;45.802;16.114;2023-05-03T01:37:24;100579.09;;;12.29;100.00
48624;BME280;34422;45.802;16.114;2023-05-03T01:40:24;100592.00;;;12.33;100.00
48624;BME280;34422;45.802;16.114;2023-05-03T01:43:12;100554.75;;;12.09;100.00
48624;BME280;34422;45.802;16.114;2023-05-03T01:46:01;100586.56;;;12.40;100.00
48624;BME280;34422;45.802;16.114;2023-05-03T01:48:58;100577.22;;;12.29;100.00
48624;BME280;34422;45.802;16.114;2023-05-03T01:51:30;100582.19;;;12.32;100.00
48624;BME280;34422;45.802;16.114;2023-05-03T01:53:57;100569.31;;;12.21;100.00
48624;BME280;34422;45.802;16.114;2023-05-03T01:56:42;100555.97;;;12.20;100.00
48624;BME280;34422;45.802;16.114;2023-05-03T01:59:19;100571.38;;;12.26;100.00
48624;BME280;34422;45.802;16.114;2023-05-03T02:01:56;100540.56;;;12.14;100.00
48624;BME280;34422;45.802;16.114;2023-05-03T02:04:39;100584.25;;;12.37;100.00
48624;BME280;34422;45.802;16.114;2023-05-03T02:07:22;100545.53;;;12.17;100.00
48624;BME280;34422;45.802;16.114;2023-05-03T02:09:53;100540.91;;;12.24;100.00
48624;BME280;34422;45.802;16.114;2023-05-03T02:12:31;100574.19;;;12.44;100.00
48624;BME280;34422;45.802;16.114;2023-05-03T02:15:08;100579.63;;;12.44;100.00
48624;BME280;34422;45.802;16.114;2023-05-03T02:17:41;100563.59;;;12.36;100.00
48624;BME280;34422;45.802;16.114;2023-05-03T02:20:21;100542.59;;;12.25;100.00
48624;BME280;34422;45.802;16.114;2023-05-03T02:23:12;100570.84;;;12.49;100.00
48624;BME280;34422;45.802;16.114;2023-05-03T02:26:20;100573.97;;;12.45;100.00
48624;BME280;34422;45.802;16.114;2023-05-03T02:29:20;100546.13;;;12.25;100.00
48624;BME280;34422;45.802;16.114;2023-05-03T02:31:59;100568.34;;;12.47;100.00
48624;BME280;34422;45.802;16.114;2023-05-03T02:34:33;100534.03;;;12.21;100.00
48624;BME280;34422;45.802;16.114;2023-05-03T02:37:28;100542.94;;;12.35;100.00
48624;BME280;34422;45.802;16.114;2023-05-03T02:40:04;100543.59;;;12.30;100.00
48624;BME280;34422;45.802;16.114;2023-05-03T02:42:44;100565.84;;;12.45;100.00
48624;BME280;34422;45.802;16.114;2023-05-03T02:45:36;100562.88;;;12.54;100.00
48624;BME280;34422;45.802;16.114;2023-05-03T02:48:45;100558.94;;;12.50;100.00
48624;BME280;34422;45.802;16.114;2023-05-03T02:51:16;100526.72;;;12.28;100.00
48624;BME280;34422;45.802;16.114;2023-05-03T02:53:48;100540.28;;;12.28;100.00
48624;BME280;34422;45.802;16.114;2023-05-03T02:56:32;100545.25;;;12.31;100.00
48624;BME280;34422;45.802;16.114;2023-05-03T02:59:31;100538.00;;;12.25;100.00
48624;BME280;34422;45.802;16.114;2023-05-03T03:02:29;100524.22;;;12.27;100.00
48624;BME280;34422;45.802;16.114;2023-05-03T03:06:16;100547.09;;;12.37;100.00
48624;BME280;34422;45.802;16.114;2023-05-03T03:09:06;100515.06;;;12.21;100.00
48624;BME280;34422;45.802;16.114;2023-05-03T03:15:05;100559.56;;;12.52;100.00
48624;BME280;34422;45.802;16.114;2023-05-03T03:17:57;100559.56;;;12.52;100.00
48624;BME280;34422;45.802;16.114;2023-05-03T03:20:36;100561.22;;;12.53;100.00
48624;BME280;34422;45.802;16.114;2023-05-03T03:23:20;100531.69;;;12.31;100.00
48624;BME280;34422;45.802;16.114;2023-05-03T03:26:24;100568.94;;;12.56;100.00
48624;BME280;34422;45.802;16.114;2023-05-03T03:29:07;100562.25;;;12.52;100.00
48624;BME280;34422;45.802;16.114;2023-05-03T03:31:53;100563.31;;;12.51;100.00
48624;BME280;34422;45.802;16.114;2023-05-03T03:34:25;100576.25;;;12.49;100.00
48624;BME280;34422;45.802;16.114;2023-05-03T03:37:09;100566.66;;;12.53;100.00
48624;BME280;34422;45.802;16.114;2023-05-03T03:39:55;100574.56;;;12.54;100.00
48624;BME280;34422;45.802;16.114;2023-05-03T03:42:33;100562.22;;;12.58;100.00
48624;BME280;34422;45.802;16.114;2023-05-03T03:45:46;100550.84;;;12.43;100.00
48624;BME280;34422;45.802;16.114;2023-05-03T03:48:12;100522.50;;;12.32;100.00
48624;BME280;34422;45.802;16.114;2023-05-03T03:50:47;100570.34;;;12.58;100.00
48624;BME280;34422;45.802;16.114;2023-05-03T03:53:21;100530.00;;;12.30;100.00
48624;BME280;34422;45.802;16.114;2023-05-03T03:55:57;100539.59;;;12.39;100.00
48624;BME280;34422;45.802;16.114;2023-05-03T03:58:27;100552.44;;;12.51;100.00
48624;BME280;34422;45.802;16.114;2023-05-03T04:01:11;100564.97;;;12.52;100.00
48624;BME280;34422;45.802;16.114;2023-05-03T04:03:48;100578.75;;;12.57;100.00
48624;BME280;34422;45.802;16.114;2023-05-03T04:06:35;100561.69;;;12.43;100.00
48624;BME280;34422;45.802;16.114;2023-05-03T04:09:20;100577.50;;;12.53;100.00
48624;BME280;34422;45.802;16.114;2023-05-03T04:12:13;100572.09;;;12.46;100.00
48624;BME280;34422;45.802;16.114;2023-05-03T04:14:46;100542.53;;;12.31;100.00
48624;BME280;34422;45.802;16.114;2023-05-03T04:17:26;100584.94;;;12.64;100.00
48624;BME280;34422;45.802;16.114;2023-05-03T04:20:17;100588.47;;;12.71;100.00
48624;BME280;34422;45.802;16.114;2023-05-03T04:22:58;100555.16;;;12.51;100.00
48624;BME280;34422;45.802;16.114;2023-05-03T04:25:34;100587.03;;;12.62;100.00
48624;BME280;34422;45.802;16.114;2023-05-03T04:28:05;100577.00;;;12.69;100.00
48624;BME280;34422;45.802;16.114;2023-05-03T04:30:33;100576.38;;;12.67;100.00
48624;BME280;34422;45.802;16.114;2023-05-03T04:33:15;100580.75;;;12.68;100.00
48624;BME280;34422;45.802;16.114;2023-05-03T04:35:53;100564.06;;;12.64;100.00
48624;BME280;34422;45.802;16.114;2023-05-03T04:38:27;100576.09;;;12.75;100.00
48624;BME280;34422;45.802;16.114;2023-05-03T04:41:03;100596.69;;;12.89;100.00
48624;BME280;34422;45.802;16.114;2023-05-03T04:43:33;100593.53;;;12.92;100.00
48624;BME280;34422;45.802;16.114;2023-05-03T04:46:05;100585.16;;;12.94;100.00
48624;BME280;34422;45.802;16.114;2023-05-03T04:48:33;100603.53;;;12.98;100.00
48624;BME280;34422;45.802;16.114;2023-05-03T04:51:03;100561.47;;;12.76;100.00
48624;BME280;34422;45.802;16.114;2023-05-03T04:53:36;100602.44;;;12.99;100.00
48624;BME280;34422;45.802;16.114;2023-05-03T04:56:05;100565.22;;;12.75;100.00
48624;BME280;34422;45.802;16.114;2023-05-03T04:58:35;100600.53;;;13.06;100.00
48624;BME280;34422;45.802;16.114;2023-05-03T05:01:05;100600.56;;;13.00;100.00
48624;BME280;34422;45.802;16.114;2023-05-03T05:03:44;100605.91;;;13.20;100.00
48624;BME280;34422;45.802;16.114;2023-05-03T05:06:18;100604.22;;;13.12;100.00
48624;BME280;34422;45.802;16.114;2023-05-03T05:08:58;100596.25;;;12.92;100.00
48624;BME280;34422;45.802;16.114;2023-05-03T05:11:49;100581.22;;;12.90;100.00
48624;BME280;34422;45.802;16.114;2023-05-03T05:14:22;100577.53;;;12.84;100.00
48624;BME280;34422;45.802;16.114;2023-05-03T05:16:49;100587.25;;;12.92;100.00
48624;BME280;34422;45.802;16.114;2023-05-03T05:19:18;100607.63;;;13.07;100.00
48624;BME280;34422;45.802;16.114;2023-05-03T05:22:10;100598.69;;;13.00;100.00
48624;BME280;34422;45.802;16.114;2023-05-03T05:25:17;100566.47;;;12.79;100.00
48624;BME280;34422;45.802;16.114;2023-05-03T05:28:11;100579.16;;;12.85;100.00
48624;BME280;34422;45.802;16.114;2023-05-03T05:30:41;100588.72;;;12.94;100.00
48624;BME280;34422;45.802;16.114;2023-05-03T05:33:14;100581.88;;;12.85;100.00
48624;BME280;34422;45.802;16.114;2023-05-03T05:35:40;100598.97;;;12.92;100.00
48624;BME280;34422;45.802;16.114;2023-05-03T05:38:07;100565.28;;;12.68;100.00
48624;BME280;34422;45.802;16.114;2023-05-03T05:40:34;100614.03;;;12.88;100.00
48624;BME280;34422;45.802;16.114;2023-05-03T05:43:01;100612.34;;;12.87;100.00
48624;BME280;34422;45.802;16.114;2023-05-03T05:45:31;100625.59;;;13.08;100.00
48624;BME280;34422;45.802;16.114;2023-05-03T05:48:00;100652.78;;;13.08;100.00
48624;BME280;34422;45.802;16.114;2023-05-03T05:50:49;100616.59;;;12.83;100.00
48624;BME280;34422;45.802;16.114;2023-05-03T05:53:24;100641.09;;;13.01;100.00
48624;BME280;34422;45.802;16.114;2023-05-03T05:56:01;100653.69;;;13.27;100.00
48624;BME280;34422;45.802;16.114;2023-05-03T05:58:28;100665.13;;;13.36;100.00
48624;BME280;34422;45.802;16.114;2023-05-03T06:00:59;100661.31;;;13.43;100.00
48624;BME280;34422;45.802;16.114;2023-05-03T06:03:29;100631.69;;;13.35;100.00
48624;BME280;34422;45.802;16.114;2023-05-03T06:05:59;100642.50;;;13.42;100.00
48624;BME280;34422;45.802;16.114;2023-05-03T06:08:39;100656.16;;;13.60;100.00
48624;BME280;34422;45.802;16.114;2023-05-03T06:11:06;100670.00;;;13.77;100.00
48624;BME280;34422;45.802;16.114;2023-05-03T06:13:33;100623.78;;;13.77;100.00
48624;BME280;34422;45.802;16.114;2023-05-03T06:16:04;100675.72;;;14.12;100.00
48624;BME280;34422;45.802;16.114;2023-05-03T06:18:36;100659.59;;;14.10;100.00
48624;BME280;34422;45.802;16.114;2023-05-03T06:21:30;100679.19;;;14.37;100.00
48624;BME280;34422;45.802;16.114;2023-05-03T06:24:42;100698.94;;;14.33;100.00
48624;BME280;34422;45.802;16.114;2023-05-03T06:27:14;100656.66;;;14.12;100.00
48624;BME280;34422;45.802;16.114;2023-05-03T06:29:56;100666.34;;;14.26;100.00
48624;BME280;34422;45.802;16.114;2023-05-03T06:33:09;100692.84;;;14.55;100.00
48624;BME280;34422;45.802;16.114;2023-05-03T06:35:36;100703.44;;;14.45;100.00
48624;BME280;34422;45.802;16.114;2023-05-03T06:38:03;100684.03;;;14.35;100.00
48624;BME280;34422;45.802;16.114;2023-05-03T06:40:33;100685.72;;;14.18;100.00
48624;BME280;34422;45.802;16.114;2023-05-03T06:43:02;100700.75;;;14.20;100.00
48624;BME280;34422;45.802;16.114;2023-05-03T06:45:38;100700.06;;;14.25;100.00
48624;BME280;34422;45.802;16.114;2023-05-03T06:48:05;100694.31;;;14.15;100.00
48624;BME280;34422;45.802;16.114;2023-05-03T06:50:38;100718.69;;;14.28;100.00
48624;BME280;34422;45.802;16.114;2023-05-03T06:53:15;100697.22;;;14.20;100.00
48624;BME280;34422;45.802;16.114;2023-05-03T06:55:59;100686.22;;;13.90;100.00
48624;BME280;34422;45.802;16.114;2023-05-03T06:58:52;100722.09;;;13.99;100.00
48624;BME280;34422;45.802;16.114;2023-05-03T07:01:46;100712.53;;;13.71;100.00
48624;BME280;34422;45.802;16.114;2023-05-03T07:07:45;100728.06;;;13.64;100.00
48624;BME280;34422;45.802;16.114;2023-05-03T07:10:14;100699.69;;;13.53;100.00
48624;BME280;34422;45.802;16.114;2023-05-03T07:12:59;100697.56;;;13.62;100.00
48624;BME280;34422;45.802;16.114;2023-05-03T07:15:37;100730.50;;;13.72;100.00
48624;BME280;34422;45.802;16.114;2023-05-03T07:18:07;100705.97;;;13.54;100.00
48624;BME280;34422;45.802;16.114;2023-05-03T07:24:38;100726.72;;;13.73;100.00
48624;BME280;34422;45.802;16.114;2023-05-03T07:27:05;100742.75;;;13.81;100.00
48624;BME280;34422;45.802;16.114;2023-05-03T07:33:05;100699.59;;;13.67;100.00
48624;BME280;34422;45.802;16.114;2023-05-03T07:39:25;100717.97;;;13.71;100.00
48624;BME280;34422;45.802;16.114;2023-05-03T07:41:52;100762.09;;;13.98;100.00
48624;BME280;34422;45.802;16.114;2023-05-03T07:44:19;100752.34;;;13.91;100.00
48624;BME280;34422;45.802;16.114;2023-05-03T07:46:50;100759.69;;;14.08;100.00
48624;BME280;34422;45.802;16.114;2023-05-03T07:56:30;100742.88;;;14.36;100.00
48624;BME280;34422;45.802;16.114;2023-05-03T07:59:23;100733.06;;;14.53;100.00
48624;BME280;34422;45.802;16.114;2023-05-03T08:02:30;100736.09;;;14.82;100.00
48624;BME280;34422;45.802;16.114;2023-05-03T08:05:06;100748.50;;;14.78;100.00
48624;BME280;34422;45.802;16.114;2023-05-03T08:07:41;100733.34;;;15.00;100.00
48624;BME280;34422;45.802;16.114;2023-05-03T08:10:18;100710.16;;;15.09;100.00
48624;BME280;34422;45.802;16.114;2023-05-03T08:13:16;100737.00;;;15.24;100.00
48624;BME280;34422;45.802;16.114;2023-05-03T08:15:43;100750.25;;;15.20;100.00
48624;BME280;34422;45.802;16.114;2023-05-03T08:18:12;100749.19;;;15.21;100.00
48624;BME280;34422;45.802;16.114;2023-05-03T08:20:39;100750.56;;;15.12;100.00
48624;BME280;34422;45.802;16.114;2023-05-03T09:18:23;100776.66;;;15.50;100.00
48624;BME280;34422;45.802;16.114;2023-05-03T09:25:05;100775.94;;;15.43;100.00
48624;BME280;34422;45.802;16.114;2023-05-03T09:27:42;100768.44;;;15.56;100.00
48624;BME280;34422;45.802;16.114;2023-05-03T09:31:08;100764.91;;;15.79;100.00
48624;BME280;34422;45.802;16.114;2023-05-03T09:37:03;100757.66;;;15.73;100.00
48624;BME280;34422;45.802;16.114;2023-05-03T09:40:32;100751.88;;;15.81;100.00
48624;BME280;34422;45.802;16.114;2023-05-03T09:43:51;100743.75;;;15.63;100.00
48624;BME280;34422;45.802;16.114;2023-05-03T09:50:40;100771.44;;;15.78;100.00
48624;BME280;34422;45.802;16.114;2023-05-03T09:53:08;100771.28;;;15.73;100.00
48624;BME280;34422;45.802;16.114;2023-05-03T09:55:38;100759.59;;;15.96;100.00
48624;BME280;34422;45.802;16.114;2023-05-03T09:58:14;100763.75;;;16.22;100.00
48624;BME280;34422;45.802;16.114;2023-05-03T10:01:17;100723.28;;;16.07;100.00
48624;BME280;34422;45.802;16.114;2023-05-03T10:03:47;100758.88;;;16.00;100.00
48624;BME280;34422;45.802;16.114;2023-05-03T10:06:23;100761.72;;;15.82;100.00
48624;BME280;34422;45.802;16.114;2023-05-03T10:09:04;100758.16;;;15.70;100.00
48624;BME280;34422;45.802;16.114;2023-05-03T10:11:33;100754.72;;;15.86;100.00
48624;BME280;34422;45.802;16.114;2023-05-03T10:14:03;100753.53;;;15.94;100.00
48624;BME280;34422;45.802;16.114;2023-05-03T10:16:38;100737.41;;;15.92;100.00
48624;BME280;34422;45.802;16.114;2023-05-03T10:19:28;100739.78;;;16.00;100.00
48624;BME280;34422;45.802;16.114;2023-05-03T10:22:08;100749.53;;;16.20;100.00
48624;BME280;34422;45.802;16.114;2023-05-03T10:24:37;100749.84;;;16.47;100.00
48624;BME280;34422;45.802;16.114;2023-05-03T10:27:23;100756.19;;;16.24;100.00
48624;BME280;34422;45.802;16.114;2023-05-03T10:29:50;100768.47;;;16.61;100.00
48624;BME280;34422;45.802;16.114;2023-05-03T10:35:06;100751.50;;;16.48;100.00
48624;BME280;34422;45.802;16.114;2023-05-03T10:37:35;100744.44;;;16.87;100.00
48624;BME280;34422;45.802;16.114;2023-05-03T10:40:20;100747.41;;;16.85;100.00
48624;BME280;34422;45.802;16.114;2023-05-03T10:42:53;100745.78;;;16.73;100.00
48624;BME280;34422;45.802;16.114;2023-05-03T10:45:26;100744.38;;;16.70;100.00
48624;BME280;34422;45.802;16.114;2023-05-03T10:50:39;100747.34;;;17.09;100.00
48624;BME280;34422;45.802;16.114;2023-05-03T10:53:06;100738.47;;;17.01;100.00
48624;BME280;34422;45.802;16.114;2023-05-03T10:55:33;100732.66;;;17.26;100.00
48624;BME280;34422;45.802;16.114;2023-05-03T10:58:00;100724.44;;;17.26;100.00
48624;BME280;34422;45.802;16.114;2023-05-03T11:00:38;100729.53;;;17.34;100.00
48624;BME280;34422;45.802;16.114;2023-05-03T11:03:42;100725.78;;;17.69;100.00
48624;BME280;34422;45.802;16.114;2023-05-03T11:08:59;100730.47;;;18.24;100.00
48624;BME280;34422;45.802;16.114;2023-05-03T11:11:26;100727.34;;;17.82;100.00
48624;BME280;34422;45.802;16.114;2023-05-03T11:13:53;100723.22;;;17.51;100.00
48624;BME280;34422;45.802;16.114;2023-05-03T11:16:20;100719.25;;;17.41;100.00
48624;BME280;34422;45.802;16.114;2023-05-03T11:18:47;100721.69;;;17.26;100.00
48624;BME280;34422;45.802;16.114;2023-05-03T11:21:14;100722.88;;;17.30;100.00
48624;BME280;34422;45.802;16.114;2023-05-03T11:23:42;100719.84;;;17.44;100.00
48624;BME280;34422;45.802;16.114;2023-05-03T11:26:09;100717.03;;;17.55;100.00
48624;BME280;34422;45.802;16.114;2023-05-03T11:28:37;100717.25;;;17.54;100.00
48624;BME280;34422;45.802;16.114;2023-05-03T11:31:05;100726.41;;;17.93;100.00
48624;BME280;34422;45.802;16.114;2023-05-03T11:33:32;100720.44;;;17.62;100.00
48624;BME280;34422;45.802;16.114;2023-05-03T11:36:03;100707.50;;;17.91;100.00
48624;BME280;34422;45.802;16.114;2023-05-03T11:38:37;100719.09;;;17.48;100.00
48624;BME280;34422;45.802;16.114;2023-05-03T11:41:12;100714.34;;;17.72;100.00
48624;BME280;34422;45.802;16.114;2023-05-03T11:43:44;100711.16;;;17.80;100.00
48624;BME280;34422;45.802;16.114;2023-05-03T11:46:17;100713.91;;;17.97;100.00
48624;BME280;34422;45.802;16.114;2023-05-03T11:48:45;100717.91;;;17.89;100.00
48624;BME280;34422;45.802;16.114;2023-05-03T11:51:11;100718.63;;;18.01;100.00
48624;BME280;34422;45.802;16.114;2023-05-03T11:53:43;100712.72;;;18.09;100.00
48624;BME280;34422;45.802;16.114;2023-05-03T11:56:12;100709.28;;;18.19;100.00
48624;BME280;34422;45.802;16.114;2023-05-03T11:58:55;100709.56;;;18.18;100.00
48624;BME280;34422;45.802;16.114;2023-05-03T12:01:28;100733.88;;;18.14;100.00
48624;BME280;34422;45.802;16.114;2023-05-03T12:03:59;100712.09;;;17.69;100.00
48624;BME280;34422;45.802;16.114;2023-05-03T12:06:28;100721.75;;;17.60;100.00
48624;BME280;34422;45.802;16.114;2023-05-03T12:08:56;100720.69;;;17.61;100.00
48624;BME280;34422;45.802;16.114;2023-05-03T12:11:23;100727.34;;;17.36;100.00
48624;BME280;34422;45.802;16.114;2023-05-03T12:13:58;100711.41;;;17.62;100.00
48624;BME280;34422;45.802;16.114;2023-05-03T12:16:26;100716.25;;;17.71;100.00
48624;BME280;34422;45.802;16.114;2023-05-03T12:18:57;100714.13;;;17.62;100.00
48624;BME280;34422;45.802;16.114;2023-05-03T12:21:45;100698.59;;;17.51;100.00
48624;BME280;34422;45.802;16.114;2023-05-03T12:24:12;100724.41;;;17.55;100.00
48624;BME280;34422;45.802;16.114;2023-05-03T12:26:44;100705.72;;;17.52;100.00
48624;BME280;34422;45.802;16.114;2023-05-03T12:29:12;100709.78;;;17.32;100.00
48624;BME280;34422;45.802;16.114;2023-05-03T12:31:39;100711.09;;;17.30;100.00
48624;BME280;34422;45.802;16.114;2023-05-03T12:34:06;100702.94;;;17.47;100.00
48624;BME280;34422;45.802;16.114;2023-05-03T12:36:34;100696.00;;;17.27;100.00
48624;BME280;34422;45.802;16.114;2023-05-03T12:39:01;100706.63;;;17.40;100.00
48624;BME280;34422;45.802;16.114;2023-05-03T12:41:28;100711.22;;;17.52;100.00
48624;BME280;34422;45.802;16.114;2023-05-03T12:43:57;100712.56;;;17.49;100.00
48624;BME280;34422;45.802;16.114;2023-05-03T12:46:24;100706.50;;;17.47;100.00
48624;BME280;34422;45.802;16.114;2023-05-03T12:48:51;100711.28;;;17.40;100.00
48624;BME280;34422;45.802;16.114;2023-05-03T12:51:18;100707.22;;;17.42;100.00
48624;BME280;34422;45.802;16.114;2023-05-03T12:53:45;100698.78;;;17.44;100.00
48624;BME280;34422;45.802;16.114;2023-05-03T12:56:12;100714.78;;;17.35;100.00
48624;BME280;34422;45.802;16.114;2023-05-03T12:58:39;100689.06;;;17.36;100.00
48624;BME280;34422;45.802;16.114;2023-05-03T13:01:08;100705.41;;;17.31;100.00
48624;BME280;34422;45.802;16.114;2023-05-03T13:03:35;100708.31;;;17.13;100.00
48624;BME280;34422;45.802;16.114;2023-05-03T13:06:02;100709.09;;;17.25;100.00
48624;BME280;34422;45.802;16.114;2023-05-03T13:08:32;100695.13;;;17.10;100.00
48624;BME280;34422;45.802;16.114;2023-05-03T13:10:59;100691.34;;;17.11;100.00
48624;BME280;34422;45.802;16.114;2023-05-03T13:13:26;100696.38;;;17.02;100.00
48624;BME280;34422;45.802;16.114;2023-05-03T13:15:53;100697.63;;;17.12;100.00
48624;BME280;34422;45.802;16.114;2023-05-03T13:18:20;100686.91;;;17.22;100.00
48624;BME280;34422;45.802;16.114;2023-05-03T13:20:48;100705.97;;;17.50;100.00
48624;BME280;34422;45.802;16.114;2023-05-03T13:23:15;100685.19;;;17.32;100.00
48624;BME280;34422;45.802;16.114;2023-05-03T13:25:43;100685.97;;;17.16;100.00
48624;BME280;34422;45.802;16.114;2023-05-03T13:28:10;100690.16;;;17.35;100.00
48624;BME280;34422;45.802;16.114;2023-05-03T13:30:36;100684.63;;;17.47;100.00
48624;BME280;34422;45.802;16.114;2023-05-03T13:33:03;100690.09;;;17.47;100.00
48624;BME280;34422;45.802;16.114;2023-05-03T13:35:30;100694.94;;;17.28;100.00
48624;BME280;34422;45.802;16.114;2023-05-03T13:37:56;100691.03;;;17.24;100.00
48624;BME280;34422;45.802;16.114;2023-05-03T13:40:23;100686.41;;;17.41;100.00
48624;BME280;34422;45.802;16.114;2023-05-03T13:42:50;100685.81;;;17.23;100.00
48624;BME280;34422;45.802;16.114;2023-05-03T13:45:17;100684.94;;;17.34;100.00
48624;BME280;34422;45.802;16.114;2023-05-03T13:47:44;100680.94;;;17.41;100.00
48624;BME280;34422;45.802;16.114;2023-05-03T13:50:11;100688.06;;;17.42;100.00
48624;BME280;34422;45.802;16.114;2023-05-03T13:52:38;100672.75;;;17.41;100.00
48624;BME280;34422;45.802;16.114;2023-05-03T13:55:05;100677.88;;;17.21;100.00
48624;BME280;34422;45.802;16.114;2023-05-03T13:57:32;100685.31;;;17.26;100.00
48624;BME280;34422;45.802;16.114;2023-05-03T13:59:59;100688.84;;;17.10;100.00
48624;BME280;34422;45.802;16.114;2023-05-03T14:02:26;100680.09;;;17.24;100.00
48624;BME280;34422;45.802;16.114;2023-05-03T14:04:52;100685.13;;;17.16;100.00
48624;BME280;34422;45.802;16.114;2023-05-03T14:07:19;100676.41;;;17.02;100.00
48624;BME280;34422;45.802;16.114;2023-05-03T14:09:46;100675.28;;;17.15;100.00
48624;BME280;34422;45.802;16.114;2023-05-03T14:12:13;100676.88;;;17.27;100.00
48624;BME280;34422;45.802;16.114;2023-05-03T14:14:39;100714.88;;;17.12;100.00
48624;BME280;34422;45.802;16.114;2023-05-03T14:17:06;100674.31;;;16.92;100.00
48624;BME280;34422;45.802;16.114;2023-05-03T14:19:34;100666.66;;;17.06;100.00
48624;BME280;34422;45.802;16.114;2023-05-03T14:22:02;100676.91;;;16.99;100.00
48624;BME280;34422;45.802;16.114;2023-05-03T14:24:28;100675.59;;;17.01;100.00
48624;BME280;34422;45.802;16.114;2023-05-03T14:26:55;100671.13;;;17.12;100.00
48624;BME280;34422;45.802;16.114;2023-05-03T14:29:22;100667.16;;;17.36;100.00
48624;BME280;34422;45.802;16.114;2023-05-03T14:31:49;100668.59;;;17.56;100.00
48624;BME280;34422;45.802;16.114;2023-05-03T14:34:15;100677.13;;;17.42;100.00
48624;BME280;34422;45.802;16.114;2023-05-03T14:36:42;100667.72;;;17.67;100.00
48624;BME280;34422;45.802;16.114;2023-05-03T14:39:10;100664.69;;;17.52;100.00
48624;BME280;34422;45.802;16.114;2023-05-03T14:41:39;100675.69;;;17.23;100.00
48624;BME280;34422;45.802;16.114;2023-05-03T14:44:07;100666.03;;;17.32;100.00
48624;BME280;34422;45.802;16.114;2023-05-03T14:46:34;100681.38;;;17.33;100.00
48624;BME280;34422;45.802;16.114;2023-05-03T14:49:01;100687.03;;;17.15;100.00
48624;BME280;34422;45.802;16.114;2023-05-03T14:51:30;100676.34;;;17.14;100.00
48624;BME280;34422;45.802;16.114;2023-05-03T14:53:58;100679.50;;;17.05;100.00
48624;BME280;34422;45.802;16.114;2023-05-03T14:56:24;100675.69;;;17.23;100.00
48624;BME280;34422;45.802;16.114;2023-05-03T14:58:51;100669.00;;;17.31;100.00
48624;BME280;34422;45.802;16.114;2023-05-03T15:01:18;100674.66;;;17.58;100.00
48624;BME280;34422;45.802;16.114;2023-05-03T15:03:48;100676.75;;;17.22;100.00